Time;durP1;ratioP1;P1;durP2;ratioP2;P2;SDS_P1;SDS_P2;PMS_P1;PMS_P2;Temp;Humidity;BMP_temperature;BMP_pressure;BME280_temperature;BME280_humidity;BME280_pressure;Samples;Min_cycle;Max_cycle;Signal;HPM_P1;HPM_P2
2021/09/27 00:01:08;;;;;;;16.35;12.00;;;18.40;97.90;;;16.54;100.00;100531.69;5067186;28;20079;-71
2021/09/27 00:03:38;;;;;;;17.55;12.48;;;18.40;97.90;;;16.52;100.00;100522.81;5067245;28;20071;-71
2021/09/27 00:06:06;;;;;;;17.88;12.13;;;18.40;97.90;;;16.50;100.00;100529.63;5067069;28;20076;-71
2021/09/27 00:08:34;;;;;;;17.17;11.88;;;18.30;97.90;;;16.48;100.00;100529.00;5066314;28;20068;-71
2021/09/27 00:11:06;;;;;;;15.93;11.43;;;18.30;97.90;;;16.40;100.00;100524.63;5067153;28;20068;-71
2021/09/27 00:13:37;;;;;;;15.77;11.13;;;18.30;97.90;;;16.36;100.00;100535.22;5048957;28;20052;-70
2021/09/27 00:16:07;;;;;;;15.13;11.10;;;18.30;97.80;;;16.36;100.00;100532.47;5066674;28;20424;-71
2021/09/27 00:18:37;;;;;;;17.45;12.00;;;18.30;97.90;;;16.37;100.00;100536.03;5066657;28;20644;-71
2021/09/27 00:21:08;;;;;;;16.63;11.48;;;18.20;97.80;;;16.34;100.00;100536.50;5066980;28;20044;-70
2021/09/27 00:23:37;;;;;;;16.55;11.45;;;18.20;97.80;;;16.33;100.00;100535.63;5067016;28;20474;-71
2021/09/27 00:26:06;;;;;;;17.98;11.68;;;18.20;97.80;;;16.30;100.00;100535.28;5066822;28;20049;-71
2021/09/27 00:28:34;;;;;;;13.50;10.10;;;18.10;97.80;;;16.24;100.00;100526.00;5066800;28;20045;-71
2021/09/27 00:31:01;;;;;;;16.10;11.13;;;18.10;97.80;;;16.23;100.00;100529.81;5066932;28;20048;-71
2021/09/27 00:33:29;;;;;;;15.73;11.13;;;18.10;97.80;;;16.19;100.00;100532.16;5049003;28;20111;-71
2021/09/27 00:35:59;;;;;;;12.98;9.90;;;18.10;97.80;;;16.18;100.00;100533.22;5070624;28;20044;-71
2021/09/27 00:38:27;;;;;;;15.05;10.00;;;18.00;97.80;;;16.20;100.00;100527.50;5070398;28;20067;-71
2021/09/27 00:40:59;;;;;;;17.25;10.55;;;18.00;97.80;;;16.21;100.00;100529.19;5070535;28;20045;-71
2021/09/27 00:43:28;;;;;;;13.98;10.02;;;18.00;97.90;;;16.20;100.00;100532.97;5067942;28;20119;-71
2021/09/27 00:45:59;;;;;;;15.45;10.13;;;18.00;98.10;;;16.25;100.00;100537.84;5070190;28;20049;-70
2021/09/27 00:48:27;;;;;;;15.85;9.93;;;18.00;98.10;;;16.21;100.00;100537.44;5070243;28;20033;-70
2021/09/27 00:51:01;;;;;;;16.52;9.55;;;18.00;98.20;;;16.23;100.00;100535.31;5070332;28;20547;-71
2021/09/27 00:53:34;;;;;;;13.30;9.60;;;18.00;98.10;;;16.23;100.00;100530.66;5070353;28;20049;-71
2021/09/27 00:56:03;;;;;;;14.07;9.30;;;18.00;98.10;;;16.19;100.00;100529.41;5070117;28;20048;-71
2021/09/27 00:58:32;;;;;;;14.30;9.32;;;17.90;98.10;;;16.17;100.00;100525.22;5065081;28;20567;-70
2021/09/27 01:01:01;;;;;;;19.85;10.57;;;18.00;98.00;;;16.15;100.00;100525.44;5050652;28;20069;-71
2021/09/27 01:03:30;;;;;;;15.70;10.20;;;18.00;98.00;;;16.18;100.00;100524.13;5050695;28;20061;-71
2021/09/27 01:06:12;;;;;;;14.10;9.55;;;18.00;98.10;;;16.13;100.00;100519.31;5050401;28;20105;-71
2021/09/27 01:08:52;;;;;;;13.90;9.10;;;18.00;98.10;;;16.18;100.00;100518.63;5034950;28;20052;-71
2021/09/27 01:11:41;;;;;;;14.35;9.45;;;18.00;98.10;;;16.15;100.00;100513.59;5070515;28;20044;-71
2021/09/27 01:14:36;;;;;;;15.27;8.85;;;18.00;98.10;;;16.14;100.00;100520.16;5070225;28;20033;-71
2021/09/27 01:17:14;;;;;;;14.82;9.45;;;17.90;98.10;;;16.18;100.00;100505.78;5067515;28;20041;-71
2021/09/27 01:20:39;;;;;;;14.00;9.70;;;17.90;98.20;;;16.20;100.00;100508.28;5070137;28;20052;-71
2021/09/27 01:23:51;;;;;;;14.88;9.48;;;17.90;98.30;;;16.21;100.00;100509.97;5045712;28;20122;-71
2021/09/27 01:26:40;;;;;;;14.27;8.85;;;17.90;98.40;;;16.20;100.00;100505.53;5070315;28;20060;-71
2021/09/27 01:29:50;;;;;;;15.93;9.68;;;17.90;98.50;;;16.21;100.00;100507.22;5069746;28;20405;-71
2021/09/27 01:32:30;;;;;;;12.68;9.20;;;17.90;98.50;;;16.24;100.00;100504.03;5051998;28;20090;-71
2021/09/27 01:35:13;;;;;;;12.93;9.13;;;17.90;98.50;;;16.18;100.00;100504.91;5070051;28;20518;-71
2021/09/27 01:37:55;;;;;;;15.20;9.68;;;17.90;98.60;;;16.18;100.00;100504.91;5069887;28;20052;-71
2021/09/27 01:40:30;;;;;;;13.77;8.60;;;17.90;98.60;;;16.21;100.00;100508.06;5051619;28;20063;-71
2021/09/27 01:43:10;;;;;;;15.35;9.65;;;17.90;98.70;;;16.27;100.00;100517.31;5069784;28;20157;-71
2021/09/27 01:45:48;;;;;;;15.63;9.15;;;18.00;98.70;;;16.31;100.00;100502.06;5050054;28;20055;-71
2021/09/27 01:48:24;;;;;;;14.18;9.70;;;18.00;98.90;;;16.34;100.00;100509.88;5051253;28;20048;-71
2021/09/27 01:50:59;;;;;;;14.32;8.90;;;18.00;98.90;;;16.32;100.00;100503.75;5069702;28;20047;-71
2021/09/27 01:53:33;;;;;;;16.20;9.70;;;18.00;98.70;;;16.27;100.00;100509.06;5069744;28;20040;-71
2021/09/27 01:56:07;;;;;;;12.60;8.57;;;18.00;98.70;;;16.25;100.00;100500.22;5069822;28;20045;-71
2021/09/27 01:58:48;;;;;;;16.00;8.95;;;18.00;98.60;;;16.19;100.00;100490.97;5051297;28;20056;-71
2021/09/27 02:01:24;;;;;;;;;;;18.00;98.60;;;16.19;100.00;100490.97;5070200;28;20044;-72
2021/09/27 02:03:59;;;;;;;12.95;8.30;;;18.00;98.50;;;16.20;100.00;100487.16;5069794;28;19951;-71
2021/09/27 02:06:32;;;;;;;15.73;9.60;;;18.00;98.50;;;16.19;100.00;100487.38;5053309;28;20041;-71
2021/09/27 02:09:06;;;;;;;12.85;8.93;;;17.90;98.60;;;16.12;100.00;100490.16;5049155;28;20068;-71
2021/09/27 02:11:37;;;;;;;16.83;9.02;;;17.90;98.50;;;16.15;100.00;100494.38;5049361;28;20044;-71
2021/09/27 02:14:15;;;;;;;12.80;8.95;;;17.90;98.60;;;16.12;100.00;100490.16;5048782;28;20086;-71
2021/09/27 02:16:52;;;;;;;16.83;9.27;;;17.90;98.50;;;16.14;100.00;100485.28;5049262;28;20049;-71
2021/09/27 02:19:38;;;;;;;16.30;9.20;;;17.90;98.50;;;16.12;100.00;100481.94;5048942;28;20063;-71
2021/09/27 02:22:15;;;;;;;13.55;8.77;;;17.90;98.60;;;16.11;100.00;100483.00;5049241;28;20045;-71
2021/09/27 02:24:53;;;;;;;14.10;9.10;;;17.90;98.60;;;16.09;100.00;100478.78;5049027;28;20045;-71
2021/09/27 02:27:21;;;;;;;13.60;8.77;;;17.90;98.50;;;16.10;100.00;100480.47;5048938;28;20123;-71
2021/09/27 02:29:48;;;;;;;16.38;9.80;;;17.90;98.40;;;16.07;100.00;100481.78;5048668;28;20052;-71
2021/09/27 02:32:28;;;;;;;17.00;10.30;;;17.90;98.40;;;16.06;100.00;100479.25;5048899;28;20094;-71
2021/09/27 02:35:06;;;;;;;16.73;9.02;;;17.80;98.30;;;16.03;100.00;100480.53;5048858;28;20049;-71
2021/09/27 02:37:45;;;;;;;14.55;9.02;;;17.80;98.20;;;15.98;100.00;100486.69;5049074;28;20504;-71
2021/09/27 02:40:22;;;;;;;13.18;8.88;;;17.80;98.20;;;15.96;100.00;100483.31;5048654;28;20120;-71
2021/09/27 02:42:54;;;;;;;15.27;9.27;;;17.80;98.20;;;15.90;100.00;100481.47;5051456;28;20043;-71
2021/09/27 02:45:24;;;;;;;12.18;8.73;;;17.70;98.20;;;15.86;100.00;100485.72;5050651;28;20462;-71
2021/09/27 02:47:58;;;;;;;14.13;9.55;;;17.70;98.10;;;15.91;100.00;100488.63;5068674;28;20045;-71
2021/09/27 02:50:33;;;;;;;12.63;8.98;;;17.70;98.30;;;15.92;100.00;100498.53;5068486;28;20082;-70
2021/09/27 02:53:01;;;;;;;14.45;9.32;;;17.70;98.30;;;15.94;100.00;100495.59;5068253;28;20400;-71
2021/09/27 02:55:49;;;;;;;18.25;9.13;;;17.70;98.40;;;15.95;100.00;100483.53;5068335;28;20530;-71
2021/09/27 02:58:29;;;;;;;16.27;9.23;;;17.70;98.60;;;15.99;100.00;100482.88;5049809;28;20048;-71
2021/09/27 03:01:08;;;;;;;13.18;9.07;;;17.70;98.80;;;16.06;100.00;100468.25;5068397;28;20040;-71
2021/09/27 03:03:55;;;;;;;16.08;9.23;;;17.70;98.80;;;16.09;100.00;100465.06;5050274;28;20106;-70
2021/09/27 03:06:40;;;;;;;14.65;9.82;;;17.70;99.00;;;16.13;100.00;100461.66;5052940;28;20106;-71
2021/09/27 03:09:32;;;;;;;17.83;10.30;;;17.70;99.10;;;16.14;100.00;100466.06;5048111;28;20045;-71
2021/09/27 03:12:19;;;;;;;15.38;9.15;;;17.80;99.20;;;16.17;100.00;100464.81;5032675;28;20064;-71
2021/09/27 03:15:30;;;;;;;16.27;9.73;;;17.80;99.20;;;16.21;100.00;100466.03;5048102;28;20120;-71
2021/09/27 03:18:06;;;;;;;;;;;17.80;99.30;;;16.25;100.00;100464.53;5048419;28;20049;-71
2021/09/27 03:20:51;;;;;;;17.35;9.98;;;17.80;99.50;;;16.30;100.00;100463.88;5048201;28;19928;-71
2021/09/27 03:23:31;;;;;;;13.98;9.15;;;17.90;99.60;;;16.33;100.00;100464.22;5030324;28;20053;-71
2021/09/27 03:26:10;;;;;;;15.38;10.10;;;17.90;99.50;;;16.35;100.00;100461.28;5029872;28;20044;-71
2021/09/27 03:28:52;;;;;;;14.55;9.30;;;17.90;99.60;;;16.36;100.00;100460.22;5047437;28;20099;-71
2021/09/27 03:31:29;;;;;;;13.95;9.45;;;18.00;99.60;;;16.35;100.00;100456.59;5030022;28;20045;-71
2021/09/27 03:34:09;;;;;;;13.38;9.52;;;18.00;99.60;;;16.34;100.00;100454.94;5047870;28;20086;-71
2021/09/27 03:37:22;;;;;;;17.25;10.00;;;18.00;99.50;;;16.32;100.00;100448.84;5029932;28;20049;-71
2021/09/27 03:40:11;;;;;;;14.90;9.07;;;18.00;99.50;;;16.30;100.00;100448.22;5047622;28;20064;-71
2021/09/27 03:42:48;;;;;;;18.45;9.05;;;17.90;99.20;;;16.29;100.00;100446.53;5047939;28;20045;-71
2021/09/27 03:45:21;;;;;;;17.52;9.80;;;18.00;99.20;;;16.26;100.00;100447.00;5030186;28;20739;-71
2021/09/27 03:48:00;;;;;;;15.35;9.48;;;18.00;99.10;;;16.21;100.00;100447.66;5029929;28;20052;-71
2021/09/27 03:50:35;;;;;;;16.23;10.05;;;18.00;99.00;;;16.23;100.00;100441.94;5047865;28;20890;-71
2021/09/27 03:53:09;;;;;;;13.75;9.10;;;18.00;99.00;;;16.21;100.00;100444.91;5047854;28;20057;-71
2021/09/27 03:55:47;;;;;;;14.02;8.98;;;18.00;99.00;;;16.19;100.00;100451.69;5047390;28;20041;-71
2021/09/27 03:58:22;;;;;;;14.70;9.43;;;18.00;99.00;;;16.20;100.00;100456.09;5029505;28;20535;-71
2021/09/27 04:00:58;;;;;;;16.25;9.18;;;17.90;99.10;;;16.18;100.00;100447.25;5037861;22;20061;-71
2021/09/27 04:03:59;;;;;;;14.95;10.25;;;17.90;99.00;;;16.19;100.00;100446.19;5007926;28;20556;-72
2021/09/27 04:06:57;;;;;;;15.38;9.00;;;17.90;99.00;;;16.18;100.00;100450.00;5007886;28;20621;-71
2021/09/27 04:09:38;;;;;;;14.60;9.65;;;17.90;98.90;;;16.15;100.00;100450.47;5024161;28;20510;-71
2021/09/27 04:12:27;;;;;;;15.30;9.55;;;17.90;98.90;;;16.12;100.00;100445.41;5011256;28;20050;-72
2021/09/27 04:15:12;;;;;;;15.55;9.57;;;17.90;98.90;;;16.11;100.00;100450.06;5011306;28;20112;-72
2021/09/27 04:18:00;;;;;;;14.05;9.10;;;17.90;98.90;;;16.17;100.00;100448.34;5011697;28;20061;-71
2021/09/27 04:20:42;;;;;;;12.20;8.27;;;17.90;98.90;;;16.18;100.00;100455.50;5011125;28;20049;-72
2021/09/27 04:23:22;;;;;;;16.38;9.20;;;17.90;99.00;;;16.20;100.00;100448.72;5011506;28;20057;-72
2021/09/27 04:26:05;;;;;;;12.52;8.48;;;17.90;99.20;;;16.24;100.00;100457.38;5011200;28;20042;-71
2021/09/27 04:29:22;;;;;;;13.63;9.07;;;17.90;99.30;;;16.30;100.00;100447.38;5011274;28;20124;-72
2021/09/27 04:31:59;;;;;;;11.52;8.23;;;17.90;99.40;;;16.33;100.00;100452.41;5003160;28;20513;-72
2021/09/27 04:34:49;;;;;;;14.50;9.07;;;17.90;99.50;;;16.34;100.00;100460.44;5009472;28;20046;-72
2021/09/27 04:37:18;;;;;;;15.10;9.07;;;17.90;99.50;;;16.36;100.00;100451.97;5009308;28;20133;-72
2021/09/27 04:39:48;;;;;;;13.93;8.40;;;17.90;99.60;;;16.38;100.00;100453.41;5010234;28;20125;-74
2021/09/27 04:42:55;;;;;;;13.15;8.50;;;18.00;99.60;;;16.41;100.00;100455.72;5010161;28;20053;-71
2021/09/27 04:45:57;;;;;;;13.50;9.10;;;18.00;99.70;;;16.41;100.00;100447.50;4998690;28;20505;-70
2021/09/27 04:48:47;;;;;;;11.43;8.55;;;18.00;99.60;;;16.42;100.00;100457.41;5024729;28;20054;-71
2021/09/27 04:51:29;;;;;;;15.52;9.05;;;18.00;99.60;;;16.42;100.00;100457.41;5010305;28;20060;-74
2021/09/27 04:54:31;;;;;;;13.82;8.90;;;18.00;99.60;;;16.45;100.00;100449.78;5010275;28;20045;-75
2021/09/27 04:57:11;;;;;;;15.93;9.45;;;18.00;99.70;;;16.45;100.00;100450.63;5010834;28;20058;-76
2021/09/27 05:00:01;;;;;;;15.68;9.50;;;18.10;99.80;;;16.50;100.00;100448.03;5008847;28;20052;-77
2021/09/27 05:02:51;;;;;;;14.70;8.68;;;18.10;99.70;;;16.50;100.00;100447.19;5010589;28;20128;-75
2021/09/27 05:05:37;;;;;;;16.40;8.40;;;18.10;99.70;;;16.50;100.00;100447.19;5010241;28;20104;-72
2021/09/27 05:08:41;;;;;;;12.50;8.40;;;18.10;99.60;;;16.47;100.00;100444.88;5009340;28;20054;-74
2021/09/27 05:12:18;;;;;;;10.98;8.15;;;18.10;99.60;;;16.46;100.00;100445.97;5025640;28;20100;-74
2021/09/27 05:15:25;;;;;;;12.77;7.82;;;18.10;99.50;;;16.42;100.00;100440.91;5011687;28;20092;-73
2021/09/27 05:18:53;;;;;;;14.15;8.82;;;18.10;99.40;;;16.41;100.00;100442.00;5012257;28;20108;-76
2021/09/27 05:22:14;;;;;;;13.80;8.65;;;18.10;99.30;;;16.38;100.00;100442.44;4973510;28;20058;-73
2021/09/27 05:25:23;;;;;;;12.75;8.48;;;18.10;99.40;;;16.29;100.00;100438.28;4974094;28;20104;-72
2021/09/27 05:28:13;;;;;;;15.73;8.10;;;18.00;99.20;;;16.25;100.00;100437.06;4990569;28;20066;-74
2021/09/27 05:31:01;;;;;;;14.40;7.70;;;18.00;99.20;;;16.26;100.00;100437.88;4990826;28;20046;-76
2021/09/27 05:33:45;;;;;;;10.25;7.53;;;18.00;99.20;;;16.30;100.00;100439.16;4991952;28;20049;-74
2021/09/27 05:36:35;;;;;;;12.30;8.27;;;18.00;99.30;;;16.32;100.00;100428.78;4992553;28;20050;-75
2021/09/27 05:39:14;;;;;;;12.95;7.95;;;18.00;99.40;;;16.38;100.00;100427.88;4981583;28;20057;-74
2021/09/27 05:42:03;;;;;;;15.88;8.30;;;18.00;99.40;;;16.45;100.00;100433.28;4994945;28;20046;-73
2021/09/27 05:44:54;;;;;;;11.15;7.75;;;18.00;99.40;;;16.46;100.00;100426.75;4992114;28;20514;-74
2021/09/27 05:47:32;;;;;;;13.80;8.32;;;18.00;99.50;;;16.50;100.00;100430.72;4992555;28;20042;-74
2021/09/27 05:50:13;;;;;;;13.82;8.88;;;18.10;99.70;;;16.53;100.00;100425.63;4990469;28;20050;-74
2021/09/27 05:52:51;;;;;;;11.65;8.02;;;18.10;99.70;;;16.55;100.00;100422.66;4992082;28;20056;-74
2021/09/27 05:55:33;;;;;;;12.30;8.38;;;18.10;99.70;;;16.57;100.00;100409.53;4991323;28;20096;-74
2021/09/27 05:58:09;;;;;;;14.50;8.20;;;18.10;99.60;;;16.56;100.00;100416.06;5008800;28;20517;-76
2021/09/27 06:00:47;;;;;;;11.98;7.32;;;18.20;99.60;;;16.54;100.00;100416.28;5009520;28;20061;-74
2021/09/27 06:03:49;;;;;;;13.82;8.27;;;18.10;99.50;;;16.56;100.00;100424.31;5010563;28;20046;-74
2021/09/27 06:06:32;;;;;;;12.13;8.07;;;18.10;99.50;;;16.59;100.00;100429.38;5009085;28;20044;-74
2021/09/27 06:09:23;;;;;;;11.93;8.30;;;18.20;99.40;;;16.59;100.00;100423.88;5001633;28;20053;-74
2021/09/27 06:12:02;;;;;;;13.45;8.63;;;18.20;99.30;;;16.60;100.00;100417.28;5008225;28;20092;-74
2021/09/27 06:14:31;;;;;;;13.45;8.77;;;18.20;99.30;;;16.62;100.00;100415.19;5005648;28;20120;-74
2021/09/27 06:17:17;;;;;;;15.27;8.45;;;18.20;99.50;;;16.66;100.00;100419.16;5007708;28;20457;-74
2021/09/27 06:19:52;;;;;;;12.13;8.63;;;18.20;99.60;;;16.70;100.00;100414.88;5004621;28;20046;-74
2021/09/27 06:22:50;;;;;;;11.20;8.05;;;18.20;99.70;;;16.78;100.00;100416.50;5008481;28;20049;-73
2021/09/27 06:25:25;;;;;;;15.30;8.38;;;18.30;99.70;;;16.84;100.00;100410.09;5008322;28;20049;-74
2021/09/27 06:28:10;;;;;;;14.50;8.95;;;18.30;99.60;;;16.88;100.00;100402.25;5008136;28;20513;-74
2021/09/27 06:30:45;;;;;;;13.38;8.70;;;18.30;99.70;;;16.87;100.00;100404.16;5005079;28;20049;-74
2021/09/27 06:33:23;;;;;;;15.82;8.82;;;18.30;99.70;;;16.95;100.00;100405.75;5007586;28;20045;-73
2021/09/27 06:35:53;;;;;;;13.52;8.48;;;18.40;99.50;;;16.98;100.00;100408.03;5006618;28;20053;-73
2021/09/27 06:38:29;;;;;;;13.60;8.48;;;18.40;99.40;;;17.00;100.00;100408.63;5006728;28;20053;-73
2021/09/27 06:40:58;;;;;;;15.10;9.57;;;18.40;99.20;;;17.00;100.00;100406.75;5007167;28;20081;-73
2021/09/27 06:43:28;;;;;;;13.68;9.73;;;18.40;99.10;;;17.04;100.00;100407.13;5008375;28;20045;-73
2021/09/27 06:45:56;;;;;;;13.23;8.48;;;18.40;98.20;;;17.06;100.00;100399.50;5008451;28;20038;-73
2021/09/27 06:48:25;;;;;;;13.20;8.77;;;18.50;99.00;;;17.11;100.00;100407.88;5003500;28;20141;-73
2021/09/27 06:50:54;;;;;;;13.95;9.90;;;18.50;98.80;;;17.12;100.00;100401.31;5006168;28;20792;-73
2021/09/27 06:53:25;;;;;;;16.30;10.18;;;18.50;98.80;;;17.16;100.00;100408.03;5008744;28;20041;-74
2021/09/27 06:55:52;;;;;;;13.45;9.23;;;18.60;98.60;;;17.21;100.00;100401.84;5008843;28;20041;-74
2021/09/27 06:58:23;;;;;;;13.73;9.30;;;18.60;98.50;;;17.26;100.00;100398.41;5007324;28;20053;-74
2021/09/27 07:00:50;;;;;;;14.30;10.02;;;18.60;98.60;;;17.29;100.00;100395.19;4999252;28;20073;-73
2021/09/27 07:03:18;;;;;;;13.48;9.30;;;18.60;98.60;;;17.36;100.00;100385.78;5007231;28;20142;-73
2021/09/27 07:05:45;;;;;;;14.25;8.73;;;18.70;98.60;;;17.44;100.00;100387.34;5012188;28;20056;-74
2021/09/27 07:08:13;;;;;;;15.40;9.38;;;18.70;98.50;;;17.47;100.00;100397.88;5026239;28;20509;-74
2021/09/27 07:10:42;;;;;;;14.45;9.32;;;18.80;98.50;;;17.53;100.00;100388.69;5026046;28;20936;-73
2021/09/27 07:13:09;;;;;;;13.30;9.23;;;18.80;98.30;;;17.62;100.00;100399.38;5028345;28;20611;-74
2021/09/27 07:15:36;;;;;;;13.50;8.90;;;18.80;98.40;;;17.66;100.00;100398.66;5027752;28;20505;-73
2021/09/27 07:18:04;;;;;;;13.82;9.57;;;18.90;98.20;;;17.71;99.98;100397.97;5025920;28;20421;-74
2021/09/27 07:20:32;;;;;;;13.57;9.27;;;18.90;97.90;;;17.73;100.00;100387.56;5022911;28;20049;-75
2021/09/27 07:22:59;;;;;;;12.75;8.90;;;18.90;98.10;;;17.75;100.00;100393.69;5028250;28;20049;-73
2021/09/27 07:25:29;;;;;;;14.02;9.02;;;19.00;98.00;;;17.76;99.87;100387.09;5028069;28;20501;-73
2021/09/27 07:27:58;;;;;;;15.95;9.80;;;18.90;97.70;;;17.79;99.88;100392.97;5027793;28;20045;-73
2021/09/27 07:30:27;;;;;;;15.20;9.48;;;19.00;97.70;;;17.81;99.25;100387.22;5010540;28;20096;-73
2021/09/27 07:32:54;;;;;;;12.23;9.10;;;19.00;97.50;;;17.87;99.15;100391.81;5008094;28;20054;-73
2021/09/27 07:35:26;;;;;;;12.32;9.23;;;19.00;97.40;;;17.92;99.24;100385.63;5020728;28;20042;-73
2021/09/27 07:37:54;;;;;;;18.60;9.77;;;19.00;97.50;;;17.89;98.91;100400.66;5014305;28;20118;-73
2021/09/27 07:40:35;;;;;;;14.13;9.82;;;19.10;97.50;;;17.97;98.66;100397.59;5023828;28;20037;-73
2021/09/27 07:43:04;;;;;;;11.38;8.68;;;19.10;97.60;;;18.02;98.67;100393.28;5019594;28;20045;-73
2021/09/27 07:45:34;;;;;;;14.98;9.18;;;19.10;97.20;;;18.03;98.44;100395.81;5022075;28;20092;-73
2021/09/27 07:48:02;;;;;;;13.05;9.18;;;19.10;97.10;;;18.07;98.49;100390.69;5022119;28;20042;-73
2021/09/27 07:50:29;;;;;;;12.95;8.95;;;19.20;97.00;;;18.07;98.49;100386.00;5021306;28;20078;-73
2021/09/27 07:52:57;;;;;;;13.40;8.85;;;19.20;96.70;;;18.08;97.81;100381.31;5029366;28;20050;-73
2021/09/27 07:55:25;;;;;;;14.18;9.02;;;19.20;96.60;;;18.12;97.88;100382.50;5016772;28;20062;-73
2021/09/27 07:57:52;;;;;;;13.23;9.00;;;19.30;96.40;;;18.17;97.14;100379.91;5019753;28;20133;-73
2021/09/27 08:00:21;;;;;;;14.85;9.40;;;19.30;96.10;;;18.22;97.03;100384.69;5025517;28;20075;-73
2021/09/27 08:02:48;;;;;;;13.15;9.23;;;19.40;96.10;;;18.29;96.42;100382.66;5022423;28;20666;-73
2021/09/27 08:05:21;;;;;;;12.88;9.55;;;19.40;96.00;;;18.40;95.65;100372.72;5026469;28;20102;-73
2021/09/27 08:07:49;;;;;;;23.20;9.73;;;19.40;95.40;;;18.47;95.82;100374.28;5027002;28;20050;-73
2021/09/27 08:10:20;;;;;;;16.13;10.32;;;19.40;95.80;;;18.50;95.59;100373.78;5022204;28;20072;-73
2021/09/27 08:12:49;;;;;;;12.90;9.52;;;19.50;95.90;;;18.51;94.92;100366.38;5021628;28;20048;-73
2021/09/27 08:15:23;;;;;;;12.80;8.50;;;19.50;95.30;;;18.59;94.64;100366.00;5029467;28;20038;-73
2021/09/27 08:17:51;;;;;;;12.25;8.43;;;19.60;95.40;;;18.65;94.22;100365.00;5013151;28;20060;-73
2021/09/27 08:20:22;;;;;;;14.38;8.70;;;19.60;94.80;;;18.73;93.67;100372.06;5013354;28;20058;-73
2021/09/27 08:22:50;;;;;;;13.02;9.20;;;19.70;94.50;;;18.79;94.05;100364.75;5010207;28;20074;-73
2021/09/27 08:25:18;;;;;;;14.35;8.80;;;19.70;94.80;;;18.81;93.94;100373.66;5017406;28;20512;-73
2021/09/27 08:27:46;;;;;;;14.18;8.75;;;19.70;94.60;;;18.80;93.51;100372.81;5030531;28;20125;-73
2021/09/27 08:30:18;;;;;;;15.25;8.52;;;19.80;94.40;;;18.84;93.66;100362.97;5026007;28;20124;-72
2021/09/27 08:32:47;;;;;;;12.13;8.52;;;19.90;94.50;;;18.92;93.83;100364.50;5030871;28;20038;-72
2021/09/27 08:35:16;;;;;;;12.30;8.18;;;20.00;94.50;;;18.97;93.14;100356.34;5030305;28;20057;-72
2021/09/27 08:37:44;;;;;;;11.65;8.02;;;20.00;93.90;;;19.02;92.62;100369.41;5030703;28;20084;-72
2021/09/27 08:40:20;;;;;;;12.90;8.23;;;20.00;93.50;;;19.03;92.55;100357.31;5028596;28;20049;-72
2021/09/27 08:42:49;;;;;;;11.73;8.35;;;20.10;93.50;;;19.00;92.27;100366.91;5030313;28;20037;-72
2021/09/27 08:45:23;;;;;;;11.95;7.90;;;20.10;93.20;;;19.00;92.21;100366.91;5029614;28;20041;-71
2021/09/27 08:48:07;;;;;;;14.00;8.13;;;20.10;93.20;;;19.03;92.05;100360.88;5028564;28;20116;-72
2021/09/27 08:50:39;;;;;;;11.40;7.30;;;20.10;93.00;;;19.09;91.40;100365.41;5012335;28;20125;-72
2021/09/27 08:53:25;;;;;;;12.70;8.07;;;20.10;92.50;;;19.21;91.57;100359.88;5010429;28;20513;-73
2021/09/27 08:56:01;;;;;;;9.82;6.88;;;20.20;92.90;;;19.29;90.72;100353.13;5009849;28;20049;-74
2021/09/27 08:58:37;;;;;;;11.32;7.65;;;20.20;92.30;;;19.38;90.29;100356.31;5014326;28;20045;-72
2021/09/27 09:01:12;;;;;;;12.18;7.00;;;20.30;92.20;;;19.43;90.47;100348.97;5019253;28;20095;-73
2021/09/27 09:03:49;;;;;;;9.50;6.78;;;20.40;92.20;;;19.48;90.14;100351.00;5028042;28;20041;-73
2021/09/27 09:06:28;;;;;;;9.88;6.90;;;20.50;91.80;;;19.46;88.72;100348.50;5028480;28;20104;-73
2021/09/27 09:09:04;;;;;;;9.93;6.45;;;20.50;90.70;;;19.48;89.67;100351.00;5019822;28;20066;-73
2021/09/27 09:11:39;;;;;;;11.40;7.22;;;20.50;91.40;;;19.50;90.14;100344.16;5028537;28;20463;-73
2021/09/27 09:14:16;;;;;;;9.90;6.25;;;20.60;91.70;;;19.53;88.94;100348.31;5025977;28;20038;-73
2021/09/27 09:16:45;;;;;;;12.60;5.97;;;20.70;90.60;;;19.58;88.90;100342.06;5023300;28;20120;-73
2021/09/27 09:19:19;;;;;;;8.88;5.95;;;20.70;90.50;;;19.60;88.76;100342.66;5023536;28;20119;-73
2021/09/27 09:21:53;;;;;;;11.20;6.45;;;20.70;90.50;;;19.61;87.68;100342.41;5026821;28;20049;-73
2021/09/27 09:24:27;;;;;;;7.50;5.80;;;20.80;89.50;;;19.62;88.27;100351.53;5024877;28;20045;-73
2021/09/27 09:27:01;;;;;;;8.02;5.75;;;20.80;90.00;;;19.66;88.79;100345.25;5029343;28;20111;-73
2021/09/27 09:29:32;;;;;;;9.07;5.80;;;20.80;90.30;;;19.68;87.85;100345.84;5005767;28;20060;-73
2021/09/27 09:32:12;;;;;;;10.98;5.78;;;20.90;89.80;;;19.68;87.83;100345.84;5028000;28;20095;-72
2021/09/27 09:34:44;;;;;;;11.57;6.13;;;20.90;89.90;;;19.65;88.08;100345.53;5028118;28;20057;-73
2021/09/27 09:37:22;;;;;;;7.95;6.05;;;20.90;89.70;;;19.59;88.35;100357.53;5025888;28;20119;-73
2021/09/27 09:40:02;;;;;;;9.63;6.13;;;20.90;89.90;;;19.58;87.31;100347.59;5014734;28;20045;-73
2021/09/27 09:42:33;;;;;;;12.23;5.88;;;20.90;89.00;;;19.59;87.65;100347.34;5020246;28;20424;-74
2021/09/27 09:45:16;;;;;;;7.75;5.30;;;20.90;89.20;;;19.63;88.34;100344.91;5026478;28;20049;-73
2021/09/27 09:47:44;;;;;;;9.18;5.07;;;20.90;89.90;;;19.65;87.94;100340.00;5028029;28;20786;-73
2021/09/27 09:50:28;;;;;;;11.55;5.97;;;20.90;89.50;;;19.65;88.12;100351.03;5025771;28;20439;-73
2021/09/27 09:52:58;;;;;;;10.80;5.07;;;20.90;89.60;;;19.68;88.14;100356.88;5029192;28;20046;-73
2021/09/27 09:55:34;;;;;;;9.82;5.85;;;20.90;89.60;;;19.72;89.02;100354.50;5028842;28;20128;-73
2021/09/27 09:58:05;;;;;;;8.40;5.38;;;21.00;90.10;;;19.76;88.61;100352.06;5005157;28;20532;-73
2021/09/27 10:00:47;;;;;;;8.73;5.57;;;21.00;89.60;;;19.79;88.01;100351.59;5000646;28;20041;-73
2021/09/27 10:03:18;;;;;;;;;;;21.00;89.40;;;19.80;88.37;100348.56;4999267;28;20038;-73
2021/09/27 10:05:51;;;;;;;;;;;21.00;89.80;;;19.88;88.62;100350.09;4998946;28;19929;-73
2021/09/27 10:08:24;;;;;;;8.27;4.75;;;21.10;89.90;;;19.88;87.23;100347.31;5046094;22;19924;-70
2021/09/27 10:10:59;;;;;;;9.20;4.85;;;21.10;89.00;;;19.82;87.23;100343.63;5030593;28;20071;-70
2021/09/27 10:13:39;;;;;;;7.95;5.63;;;21.10;88.80;;;19.79;87.74;100346.88;5042860;28;20045;-70
2021/09/27 10:16:15;;;;;;;9.27;4.40;;;21.00;89.30;;;19.79;87.39;100352.41;5046373;28;20040;-70
2021/09/27 10:18:45;;;;;;;7.60;5.00;;;21.00;89.20;;;19.81;87.67;100341.94;5058899;28;20045;-70
2021/09/27 10:21:40;;;;;;;7.65;4.63;;;21.00;89.30;;;19.84;87.07;100341.47;5065571;28;20045;-70
2021/09/27 10:24:20;;;;;;;9.18;4.20;;;21.10;89.10;;;19.91;86.89;100344.03;5048473;28;20096;-70
2021/09/27 10:26:53;;;;;;;7.63;4.70;;;21.10;89.10;;;19.94;86.76;100342.72;5041281;28;20052;-70
2021/09/27 10:29:26;;;;;;;8.50;4.28;;;21.10;89.00;;;19.96;86.46;100341.38;5063674;28;20053;-70
2021/09/27 10:31:59;;;;;;;7.07;4.38;;;21.10;89.00;;;20.01;87.15;100348.91;5066795;28;20071;-70
2021/09/27 10:34:31;;;;;;;7.50;4.45;;;21.10;89.40;;;20.05;86.66;100350.91;5057268;28;20044;-70
2021/09/27 10:37:09;;;;;;;7.20;4.13;;;21.10;89.30;;;20.06;86.82;100344.28;5058901;28;20040;-70
2021/09/27 10:39:38;;;;;;;9.75;4.30;;;21.20;89.10;;;20.07;87.37;100364.50;5065838;28;20587;-70
2021/09/27 10:42:09;;;;;;;7.95;4.55;;;21.20;89.70;;;20.03;86.23;100349.47;5062138;28;20068;-70
2021/09/27 10:44:43;;;;;;;8.55;4.60;;;21.10;89.00;;;20.03;86.07;100355.00;5066319;28;20040;-70
2021/09/27 10:47:19;;;;;;;7.65;4.28;;;21.20;88.60;;;20.05;86.52;100350.09;5064701;28;20045;-70